Time;durP1;ratioP1;P1;durP2;ratioP2;P2;SDS_P1;SDS_P2;PMS_P1;PMS_P2;Temp;Humidity;BMP_temperature;BMP_pressure;BME280_temperature;BME280_humidity;BME280_pressure;Samples;Min_cycle;Max_cycle;Signal;HPM_P1;HPM_P2
2023/01/18 00:00:27;;;;;;;;;;;;;;;;;;5092890;28;19931;-78
2023/01/18 00:02:53;;;;;;;;;;;;;;;;;;5092731;28;19970;-79
2023/01/18 00:05:21;;;;;;;;;;;;;;;;;;5093880;28;19908;-78
2023/01/18 00:07:47;;;;;;;;;;;;;;;;;;5093023;28;19908;-79
2023/01/18 00:10:13;;;;;;;;;;;;;;;;;;5093100;28;20007;-78
2023/01/18 00:12:39;;;;;;;;;;;;;;;;;;5092867;28;20281;-78
2023/01/18 00:15:04;;;;;;;;;;;;;;;;;;5092413;28;19935;-77
2023/01/18 00:17:30;;;;;;;;;;;;;;;;;;5092532;28;19912;-77
2023/01/18 00:19:56;;;;;;;;;;;;;;;;;;5092881;28;19908;-79
2023/01/18 00:22:22;;;;;;;;;;;;;;;;;;5092725;28;20310;-78
2023/01/18 00:24:48;;;;;;;;;;;;;;;;;;5092581;28;19943;-77
2023/01/18 00:27:14;;;;;;;;;;;;;;;;;;5093893;28;19957;-78
2023/01/18 00:29:40;;;;;;;;;;;;;;;;;;5092452;28;19912;-83
2023/01/18 00:32:06;;;;;;;;;;;;;;;;;;5092025;28;19904;-79
2023/01/18 00:34:32;;;;;;;;;;;;;;;;;;5092214;28;19977;-77
2023/01/18 00:36:58;;;;;;;;;;;;;;;;;;5091790;28;19904;-79
2023/01/18 00:39:23;;;;;;;;;;;;;;;;;;5092593;28;19908;-77
2023/01/18 00:44:34;;;;;;;;;;;;;;;;;;5093403;28;20429;-79
2023/01/18 00:47:00;;;;;;;;;;;;;;;;;;5095697;28;19908;-77
2023/01/18 00:49:26;;;;;;;;;;;;;;;;;;5093186;28;19915;-79
2023/01/18 00:51:52;;;;;;;;;;;;;;;;;;5094770;28;20360;-78
2023/01/18 00:54:18;;;;;;;;;;;;;;;;;;5094013;28;19915;-78
2023/01/18 00:56:44;;;;;;;;;;;;;;;;;;5092563;28;19916;-79
2023/01/18 00:59:09;;;;;;;;;;;;;;;;;;5093195;28;20441;-79
2023/01/18 01:01:35;;;;;;;;;;;;;;;;;;5093012;28;19912;-78
2023/01/18 01:06:46;;;;;;;;;;;;;;;;;;5092892;28;19930;-78
2023/01/18 01:09:12;;;;;;;;;;;;;;;;;;5091511;28;19931;-79
2023/01/18 01:11:38;;;;;;;;;;;;;;;;;;5091750;28;19908;-81
2023/01/18 01:27:48;;;;;;;;;;;;;;;;;;5093042;28;19915;-80
2023/01/18 01:30:14;;;;;;;;;;;;;;;;;;5091456;28;19908;-80
2023/01/18 01:32:40;;;;;;;;;;;;;;;;;;5091511;28;19931;-81
2023/01/18 01:35:05;;;;;;;;;;;;;;;;;;5091535;28;19908;-78
2023/01/18 01:37:31;;;;;;;;;;;;;;;;;;5092410;28;19916;-78
2023/01/18 01:39:57;;;;;;;;;;;;;;;;;;5091738;28;20344;-78
2023/01/18 01:42:23;;;;;;;;;;;;;;;;;;5091623;28;20327;-80
2023/01/18 01:44:50;;;;;;;;;;;;;;;;;;5091387;28;19908;-79
2023/01/18 01:47:16;;;;;;;;;;;;;;;;;;5091488;28;19914;-79
2023/01/18 01:49:41;;;;;;;;;;;;;;;;;;5091420;28;19909;-78
2023/01/18 01:52:07;;;;;;;;;;;;;;;;;;5091632;28;19956;-79
2023/01/18 01:54:33;;;;;;;;;;;;;;;;;;5091309;28;19944;-79
2023/01/18 01:56:59;;;;;;;;;;;;;;;;;;5094253;28;20261;-79
2023/01/18 01:59:25;;;;;;;;;;;;;;;;;;5095477;28;19965;-79
2023/01/18 02:01:51;;;;;;;;;;;;;;;;;;5095507;28;19909;-80
2023/01/18 02:04:17;;;;;;;;;;;;;;;;;;5095274;28;19944;-79
2023/01/18 02:06:43;;;;;;;;;;;;;;;;;;5095253;28;19908;-79
2023/01/18 02:09:09;;;;;;;;;;;;;;;;;;5096011;28;19908;-80
2023/01/18 02:11:35;;;;;;;;;;;;;;;;;;5095014;28;20391;-80
2023/01/18 02:14:01;;;;;;;;;;;;;;;;;;5095060;28;20006;-79
2023/01/18 02:16:27;;;;;;;;;;;;;;;;;;5095949;28;20328;-79
2023/01/18 02:18:52;;;;;;;;;;;;;;;;;;5094699;28;19919;-80
2023/01/18 02:21:18;;;;;;;;;;;;;;;;;;5096206;28;19908;-77
2023/01/18 02:23:44;;;;;;;;;;;;;;;;;;5094840;28;19916;-79
2023/01/18 02:26:10;;;;;;;;;;;;;;;;;;5094670;28;20003;-79
2023/01/18 02:28:36;;;;;;;;;;;;;;;;;;5094615;28;19922;-78
2023/01/18 02:31:02;;;;;;;;;;;;;;;;;;5095011;28;20074;-79
2023/01/18 02:33:28;;;;;;;;;;;;;;;;;;5094636;28;20385;-79
2023/01/18 02:35:54;;;;;;;;;;;;;;;;;;5095117;28;20019;-79
2023/01/18 02:38:23;;;;;;;;;;;;;;;;;;5095453;28;20000;-79
2023/01/18 02:40:49;;;;;;;;;;;;;;;;;;5094576;28;19923;-79
2023/01/18 02:48:51;;;;;;;;;;;;;;;;;;5095710;28;19915;-79
2023/01/18 02:51:17;;;;;;;;;;;;;;;;;;5094415;28;19909;-79
2023/01/18 02:53:43;;;;;;;;;;;;;;;;;;5095402;28;19909;-78
2023/01/18 02:56:09;;;;;;;;;;;;;;;;;;5080980;22;19948;-76
2023/01/18 02:58:35;;;;;;;;;;;;;;;;;;5054735;28;20551;-76
2023/01/18 03:01:01;;;;;;;;;;;;;;;;;;5055116;28;19932;-76
2023/01/18 03:03:27;;;;;;;;;;;;;;;;;;5055046;28;19940;-76
2023/01/18 03:05:52;;;;;;;;;;;;;;;;;;5053585;28;20395;-76
2023/01/18 03:08:18;;;;;;;;;;;;;;;;;;5054056;28;19995;-76
2023/01/18 03:10:46;;;;;;;;;;;;;;;;;;5053722;28;19931;-77
2023/01/18 03:13:12;;;;;;;;;;;;;;;;;;5053797;28;19905;-76
2023/01/18 03:15:38;;;;;;;;;;;;;;;;;;5054477;28;20498;-76
2023/01/18 03:18:04;;;;;;;;;;;;;;;;;;5053908;28;19935;-75
2023/01/18 03:20:30;;;;;;;;;;;;;;;;;;5053978;28;19913;-76
2023/01/18 03:23:41;;;;;;;;;;;;;;;;;;5053539;28;19925;-77
2023/01/18 03:25:42;;;;;;;;;;;;;;;;;;5046455;28;19909;-76
2023/01/18 03:33:44;;;;;;;;;;;;;;;;;;5054363;28;19916;-76
2023/01/18 03:36:10;;;;;;;;;;;;;;;;;;5054397;28;19917;-76
2023/01/18 03:38:35;;;;;;;;;;;;;;;;;;5054571;28;20275;-76
2023/01/18 03:41:01;;;;;;;;;;;;;;;;;;5053070;28;19908;-76
2023/01/18 03:43:27;;;;;;;;;;;;;;;;;;5052855;28;19932;-76
2023/01/18 03:45:53;;;;;;;;;;;;;;;;;;5054346;28;20003;-77
2023/01/18 03:48:19;;;;;;;;;;;;;;;;;;5052549;28;19952;-76
2023/01/18 03:50:45;;;;;;;;;;;;;;;;;;5052714;28;20258;-75
2023/01/18 03:53:11;;;;;;;;;;;;;;;;;;5052786;28;19908;-75
2023/01/18 03:55:37;;;;;;;;;;;;;;;;;;5053751;28;20006;-76
2023/01/18 03:58:03;;;;;;;;;;;;;;;;;;5052573;28;19921;-76
2023/01/18 04:00:30;;;;;;;;;;;;;;;;;;5053848;28;19936;-76
2023/01/18 04:02:56;;;;;;;;;;;;;;;;;;5054088;28;20000;-75
2023/01/18 04:05:22;;;;;;;;;;;;;;;;;;5052360;28;19944;-75
2023/01/18 04:07:47;;;;;;;;;;;;;;;;;;5054176;28;20460;-75
2023/01/18 04:10:13;;;;;;;;;;;;;;;;;;5055121;28;19962;-75
2023/01/18 04:12:39;;;;;;;;;;;;;;;;;;5053964;28;19912;-76
2023/01/18 04:15:05;;;;;;;;;;;;;;;;;;5054401;28;19915;-76
2023/01/18 04:17:31;;;;;;;;;;;;;;;;;;5052936;28;19920;-76
2023/01/18 04:19:57;;;;;;;;;;;;;;;;;;5052866;28;19909;-76
2023/01/18 04:22:23;;;;;;;;;;;;;;;;;;5053091;28;19998;-76
2023/01/18 04:24:49;;;;;;;;;;;;;;;;;;5051906;28;20026;-78
2023/01/18 04:27:15;;;;;;;;;;;;;;;;;;5051978;28;19904;-76
2023/01/18 04:29:41;;;;;;;;;;;;;;;;;;5052007;28;19919;-76
2023/01/18 04:32:07;;;;;;;;;;;;;;;;;;5053302;28;19999;-75
2023/01/18 04:34:33;;;;;;;;;;;;;;;;;;5051565;28;20306;-77
2023/01/18 04:36:59;;;;;;;;;;;;;;;;;;5055157;28;19912;-76
2023/01/18 04:39:25;;;;;;;;;;;;;;;;;;5053875;28;20325;-74
2023/01/18 04:41:50;;;;;;;;;;;;;;;;;;5052289;28;19909;-75
2023/01/18 04:44:16;;;;;;;;;;;;;;;;;;5052019;28;19909;-76
2023/01/18 04:46:42;;;;;;;;;;;;;;;;;;5053139;28;19916;-76
2023/01/18 04:49:08;;;;;;;;;;;;;;;;;;5053090;28;19916;-76
2023/01/18 04:51:34;;;;;;;;;;;;;;;;;;5051627;28;19909;-76
2023/01/18 04:54:00;;;;;;;;;;;;;;;;;;5053163;28;19916;-76
2023/01/18 04:56:26;;;;;;;;;;;;;;;;;;5052564;28;20317;-78
2023/01/18 04:58:53;;;;;;;;;;;;;;;;;;5052477;28;19913;-76
2023/01/18 05:01:18;;;;;;;;;;;;;;;;;;5051940;28;19959;-76
2023/01/18 05:03:44;;;;;;;;;;;;;;;;;;5053187;28;19912;-76
2023/01/18 05:06:10;;;;;;;;;;;;;;;;;;5052883;28;19931;-76
2023/01/18 05:08:39;;;;;;;;;;;;;;;;;;5052799;28;19963;-76
2023/01/18 05:11:05;;;;;;;;;;;;;;;;;;5051613;28;19915;-76
2023/01/18 05:13:31;;;;;;;;;;;;;;;;;;5051854;28;19909;-76
2023/01/18 05:15:57;;;;;;;;;;;;;;;;;;5052668;28;19931;-77
2023/01/18 05:18:23;;;;;;;;;;;;;;;;;;5050916;28;19963;-77
2023/01/18 05:20:49;;;;;;;;;;;;;;;;;;5051490;28;20339;-77
2023/01/18 05:23:15;;;;;;;;;;;;;;;;;;5051758;28;19934;-76
2023/01/18 05:25:41;;;;;;;;;;;;;;;;;;5052874;28;19920;-77
2023/01/18 05:28:07;;;;;;;;;;;;;;;;;;5051263;28;19909;-77
2023/01/18 05:30:32;;;;;;;;;;;;;;;;;;5053760;28;19916;-77
2023/01/18 05:32:58;;;;;;;;;;;;;;;;;;5056394;28;20011;-75
2023/01/18 05:35:24;;;;;;;;;;;;;;;;;;5056288;28;19915;-75
2023/01/18 05:37:50;;;;;;;;;;;;;;;;;;5055229;28;20370;-76
2023/01/18 05:40:16;;;;;;;;;;;;;;;;;;5057264;28;19909;-76
2023/01/18 05:42:42;;;;;;;;;;;;;;;;;;5055521;28;19909;-76
2023/01/18 05:45:09;;;;;;;;;;;;;;;;;;5054931;28;19909;-76
2023/01/18 05:47:35;;;;;;;;;;;;;;;;;;5056585;28;19909;-76
2023/01/18 05:50:01;;;;;;;;;;;;;;;;;;5056399;28;19908;-75
2023/01/18 05:52:27;;;;;;;;;;;;;;;;;;5056496;28;19908;-76
2023/01/18 05:54:52;;;;;;;;;;;;;;;;;;5056158;28;19924;-76
2023/01/18 05:57:18;;;;;;;;;;;;;;;;;;5054929;28;20403;-76
2023/01/18 05:59:44;;;;;;;;;;;;;;;;;;5056842;28;19915;-76
2023/01/18 06:02:10;;;;;;;;;;;;;;;;;;5056401;28;19904;-77
2023/01/18 06:04:36;;;;;;;;;;;;;;;;;;5056622;28;19916;-76
2023/01/18 06:07:02;;;;;;;;;;;;;;;;;;5056755;28;19905;-76
2023/01/18 06:09:29;;;;;;;;;;;;;;;;;;5056300;28;20435;-76
2023/01/18 06:11:55;;;;;;;;;;;;;;;;;;5054907;28;19909;-76
2023/01/18 06:14:20;;;;;;;;;;;;;;;;;;5054721;28;19905;-76
2023/01/18 06:16:46;;;;;;;;;;;;;;;;;;5056009;28;19944;-75
2023/01/18 06:19:12;;;;;;;;;;;;;;;;;;5054618;28;19989;-76
2023/01/18 06:21:38;;;;;;;;;;;;;;;;;;5056160;28;19909;-76
2023/01/18 06:24:04;;;;;;;;;;;;;;;;;;5056055;28;19961;-76
2023/01/18 06:26:30;;;;;;;;;;;;;;;;;;5060468;28;20006;-77
2023/01/18 06:28:56;;;;;;;;;;;;;;;;;;5061279;28;20366;-78
2023/01/18 06:31:22;;;;;;;;;;;;;;;;;;5063591;28;20293;-79
2023/01/18 06:33:48;;;;;;;;;;;;;;;;;;5063522;28;19908;-76
2023/01/18 06:36:14;;;;;;;;;;;;;;;;;;5058988;28;20254;-77
2023/01/18 06:38:40;;;;;;;;;;;;;;;;;;5054478;28;20006;-76
2023/01/18 06:41:06;;;;;;;;;;;;;;;;;;5055314;28;19915;-76
2023/01/18 06:43:32;;;;;;;;;;;;;;;;;;5055120;28;19917;-76
2023/01/18 06:45:58;;;;;;;;;;;;;;;;;;5055289;28;20438;-76
2023/01/18 06:48:24;;;;;;;;;;;;;;;;;;5055186;28;19932;-76
2023/01/18 06:50:51;;;;;;;;;;;;;;;;;;5054462;28;19917;-76
2023/01/18 06:53:17;;;;;;;;;;;;;;;;;;5055693;28;19909;-76
2023/01/18 06:55:43;;;;;;;;;;;;;;;;;;5054010;28;19923;-75
2023/01/18 06:58:09;;;;;;;;;;;;;;;;;;5054076;28;20007;-76
2023/01/18 07:00:36;;;;;;;;;;;;;;;;;;5054580;28;19909;-76
2023/01/18 07:03:03;;;;;;;;;;;;;;;;;;5054562;28;19931;-76
2023/01/18 07:05:29;;;;;;;;;;;;;;;;;;5053754;28;20352;-77
2023/01/18 07:07:55;;;;;;;;;;;;;;;;;;5053635;28;19952;-75
2023/01/18 07:10:21;;;;;;;;;;;;;;;;;;5053866;28;19909;-75
2023/01/18 07:12:49;;;;;;;;;;;;;;;;;;5053758;28;19909;-76
2023/01/18 07:15:16;;;;;;;;;;;;;;;;;;5053317;28;19931;-76
2023/01/18 07:17:43;;;;;;;;;;;;;;;;;;5054638;28;20026;-76
2023/01/18 07:20:09;;;;;;;;;;;;;;;;;;5053656;28;19959;-76
2023/01/18 07:22:35;;;;;;;;;;;;;;;;;;5053511;28;20327;-75
2023/01/18 07:25:01;;;;;;;;;;;;;;;;;;5055541;28;19995;-76
2023/01/18 07:27:27;;;;;;;;;;;;;;;;;;5055714;28;19923;-75
2023/01/18 07:29:54;;;;;;;;;;;;;;;;;;5056301;28;19909;-76
2023/01/18 07:32:20;;;;;;;;;;;;;;;;;;5056088;28;19913;-76
2023/01/18 07:34:45;;;;;;;;;;;;;;;;;;5054286;28;20392;-76
2023/01/18 07:37:11;;;;;;;;;;;;;;;;;;5054629;28;19909;-76
2023/01/18 07:39:37;;;;;;;;;;;;;;;;;;5053289;28;19932;-75
2023/01/18 07:42:03;;;;;;;;;;;;;;;;;;5054613;28;20391;-76
2023/01/18 07:44:29;;;;;;;;;;;;;;;;;;5052919;28;20365;-76
2023/01/18 07:46:55;;;;;;;;;;;;;;;;;;5052961;28;19909;-75
2023/01/18 07:49:21;;;;;;;;;;;;;;;;;;5052683;28;20300;-76
2023/01/18 07:51:47;;;;;;;;;;;;;;;;;;5052819;28;19921;-76
2023/01/18 07:54:14;;;;;;;;;;;;;;;;;;5053163;28;19994;-76
2023/01/18 07:56:40;;;;;;;;;;;;;;;;;;5054012;28;20284;-76
2023/01/18 07:59:06;;;;;;;;;;;;;;;;;;5053472;28;19913;-76
2023/01/18 08:01:32;;;;;;;;;;;;;;;;;;5052555;28;19916;-76
2023/01/18 08:03:58;;;;;;;;;;;;;;;;;;5053775;28;20373;-76
2023/01/18 08:06:24;;;;;;;;;;;;;;;;;;5053656;28;19967;-76
2023/01/18 08:08:50;;;;;;;;;;;;;;;;;;5052634;28;20007;-76
2023/01/18 08:11:18;;;;;;;;;;;;;;;;;;5054093;28;19916;-77
2023/01/18 08:13:43;;;;;;;;;;;;;;;;;;5053929;28;20274;-76
2023/01/18 08:16:10;;;;;;;;;;;;;;;;;;5053526;28;19999;-75
2023/01/18 08:18:36;;;;;;;;;;;;;;;;;;5052099;28;19913;-76
2023/01/18 08:21:02;;;;;;;;;;;;;;;;;;5052399;28;19909;-75
2023/01/18 08:23:27;;;;;;;;;;;;;;;;;;5053863;28;19964;-76
2023/01/18 08:25:54;;;;;;;;;;;;;;;;;;5053513;28;19916;-77
2023/01/18 08:28:20;;;;;;;;;;;;;;;;;;5053536;28;20042;-76
2023/01/18 08:30:46;;;;;;;;;;;;;;;;;;5053550;28;19944;-76
2023/01/18 08:33:12;;;;;;;;;;;;;;;;;;5053084;28;20376;-76
2023/01/18 08:35:37;;;;;;;;;;;;;;;;;;5051718;28;20324;-76
2023/01/18 08:38:03;;;;;;;;;;;;;;;;;;5051926;28;19920;-76
2023/01/18 08:40:29;;;;;;;;;;;;;;;;;;5052410;28;19972;-76
2023/01/18 08:42:55;;;;;;;;;;;;;;;;;;5052095;28;19916;-76
2023/01/18 08:45:21;;;;;;;;;;;;;;;;;;5051999;28;19919;-76
2023/01/18 08:47:47;;;;;;;;;;;;;;;;;;5052935;28;20380;-76
2023/01/18 08:50:13;;;;;;;;;;;;;;;;;;5052217;28;19913;-76
2023/01/18 08:52:39;;;;;;;;;;;;;;;;;;5052216;28;19932;-75
2023/01/18 08:55:20;;;;;;;;;;;;;;;;;;5161012;22;19947;-85
2023/01/18 08:57:46;;;;;;;;;;;;;;;;;;5070864;28;20416;-79
2023/01/18 09:00:36;;;;;;;;;;;;;;;;;;5502625;22;19915;-81
2023/01/18 09:03:04;;;;;;;;;;;;;;;;;;5607583;22;19925;-79
2023/01/18 09:05:30;;;;;;;;;;;;;;;;;;5070089;28;19967;-77
2023/01/18 09:07:56;;;;;;;;;;;;;;;;;;5053150;28;19908;-77
2023/01/18 09:10:22;;;;;;;;;;;;;;;;;;5055858;28;19917;-79
2023/01/18 09:12:48;;;;;;;;;;;;;;;;;;5052783;28;19909;-79
2023/01/18 09:15:14;;;;;;;;;;;;;;;;;;5052036;28;19909;-78
2023/01/18 09:17:41;;;;;;;;;;;;;;;;;;5051883;28;19912;-78
2023/01/18 09:20:08;;;;;;;;;;;;;;;;;;5051418;28;19915;-77
2023/01/18 09:22:34;;;;;;;;;;;;;;;;;;5051774;28;19908;-80
2023/01/18 09:25:00;;;;;;;;;;;;;;;;;;5052543;28;20324;-78
2023/01/18 09:27:26;;;;;;;;;;;;;;;;;;5052306;28;19955;-79
2023/01/18 09:29:52;;;;;;;;;;;;;;;;;;5051566;28;19909;-78
2023/01/18 09:32:18;;;;;;;;;;;;;;;;;;5052267;28;20378;-78
2023/01/18 09:34:48;;;;;;;;;;;;;;;;;;5051060;28;19949;-79
2023/01/18 09:37:13;;;;;;;;;;;;;;;;;;5051021;28;20328;-77
2023/01/18 09:39:39;;;;;;;;;;;;;;;;;;5050910;28;19962;-78
2023/01/18 09:42:05;;;;;;;;;;;;;;;;;;5052286;28;19909;-78
2023/01/18 09:44:31;;;;;;;;;;;;;;;;;;5051346;28;19909;-79
2023/01/18 09:46:57;;;;;;;;;;;;;;;;;;5052127;28;20395;-80
2023/01/18 09:49:23;;;;;;;;;;;;;;;;;;5050325;28;19917;-79
2023/01/18 09:51:49;;;;;;;;;;;;;;;;;;5051021;28;19916;-79
2023/01/18 09:54:15;;;;;;;;;;;;;;;;;;5051093;28;20046;-78
2023/01/18 09:56:41;;;;;;;;;;;;;;;;;;5050568;28;20034;-78
2023/01/18 09:59:07;;;;;;;;;;;;;;;;;;5050596;28;20037;-77
2023/01/18 10:01:33;;;;;;;;;;;;;;;;;;5052306;28;19913;-79
2023/01/18 10:03:59;;;;;;;;;;;;;;;;;;5051834;28;19923;-77
2023/01/18 10:06:25;;;;;;;;;;;;;;;;;;5052078;28;19963;-78
2023/01/18 10:08:52;;;;;;;;;;;;;;;;;;5051609;28;19912;-78
2023/01/18 10:11:18;;;;;;;;;;;;;;;;;;5050789;28;20918;-78
2023/01/18 10:13:43;;;;;;;;;;;;;;;;;;5051907;28;19970;-78
2023/01/18 10:16:13;;;;;;;;;;;;;;;;;;5050456;28;19909;-77
2023/01/18 10:18:44;;;;;;;;;;;;;;;;;;5053453;28;20363;-78
2023/01/18 10:21:10;;;;;;;;;;;;;;;;;;5054325;28;19909;-77
2023/01/18 10:23:36;;;;;;;;;;;;;;;;;;5054204;28;19915;-78
2023/01/18 10:26:02;;;;;;;;;;;;;;;;;;5054131;28;19908;-77
2023/01/18 10:28:28;;;;;;;;;;;;;;;;;;5055231;28;20000;-77
2023/01/18 10:30:54;;;;;;;;;;;;;;;;;;5055226;28;20289;-77
2023/01/18 10:33:20;;;;;;;;;;;;;;;;;;5055450;28;19916;-78
2023/01/18 10:35:47;;;;;;;;;;;;;;;;;;5053884;28;19908;-79
2023/01/18 10:38:14;;;;;;;;;;;;;;;;;;5054217;28;19952;-77
2023/01/18 10:40:40;;;;;;;;;;;;;;;;;;5054759;28;19908;-77
2023/01/18 10:43:06;;;;;;;;;;;;;;;;;;5054720;28;19911;-76
2023/01/18 10:45:32;;;;;;;;;;;;;;;;;;5053421;28;19909;-77
2023/01/18 10:47:58;;;;;;;;;;;;;;;;;;5060189;28;19955;-79
2023/01/18 10:50:30;;;;;;;;;;;;;;;;;;5054016;28;19913;-79
2023/01/18 10:52:56;;;;;;;;;;;;;;;;;;5053106;28;19908;-79
2023/01/18 10:55:22;;;;;;;;;;;;;;;;;;5038681;28;19909;-79
2023/01/18 10:57:48;;;;;;;;;;;;;;;;;;5034004;28;19917;-79
2023/01/18 11:00:20;;;;;;;;;;;;;;;;;;5034026;28;19932;-79
2023/01/18 11:02:46;;;;;;;;;;;;;;;;;;5035068;28;19923;-79
2023/01/18 11:07:41;;;;;;;;;;;;;;;;;;5035010;28;19952;-79
2023/01/18 11:10:08;;;;;;;;;;;;;;;;;;5033655;28;19948;-78
2023/01/18 11:12:37;;;;;;;;;;;;;;;;;;5033655;28;19917;-79
2023/01/18 11:15:03;;;;;;;;;;;;;;;;;;5034903;28;19909;-80
2023/01/18 11:17:32;;;;;;;;;;;;;;;;;;5034659;28;20012;-79
2023/01/18 11:19:58;;;;;;;;;;;;;;;;;;5034771;28;19960;-80
2023/01/18 11:22:24;;;;;;;;;;;;;;;;;;5035137;28;19952;-80
2023/01/18 11:24:50;;;;;;;;;;;;;;;;;;5033836;28;20328;-79
2023/01/18 11:27:16;;;;;;;;;;;;;;;;;;5033529;28;19995;-80
2023/01/18 11:29:42;;;;;;;;;;;;;;;;;;5034826;28;19910;-79
2023/01/18 11:32:09;;;;;;;;;;;;;;;;;;5033641;28;20383;-80
2023/01/18 11:34:35;;;;;;;;;;;;;;;;;;5033383;28;19909;-79
2023/01/18 11:37:01;;;;;;;;;;;;;;;;;;5033184;28;19992;-80
2023/01/18 11:39:26;;;;;;;;;;;;;;;;;;5033041;28;20292;-79
2023/01/18 11:41:52;;;;;;;;;;;;;;;;;;5033320;28;20392;-79
2023/01/18 11:44:18;;;;;;;;;;;;;;;;;;5034572;28;19975;-80
2023/01/18 11:46:44;;;;;;;;;;;;;;;;;;5034057;28;19909;-78
2023/01/18 11:49:10;;;;;;;;;;;;;;;;;;5036195;28;20266;-80
2023/01/18 11:51:37;;;;;;;;;;;;;;;;;;5038252;28;19996;-80
2023/01/18 11:54:03;;;;;;;;;;;;;;;;;;5037623;28;20289;-80
2023/01/18 11:56:29;;;;;;;;;;;;;;;;;;5035890;28;19905;-80
2023/01/18 11:58:55;;;;;;;;;;;;;;;;;;5035965;28;19913;-80
2023/01/18 12:01:21;;;;;;;;;;;;;;;;;;5035418;28;19959;-81
2023/01/18 12:03:47;;;;;;;;;;;;;;;;;;5033729;28;19925;-79
2023/01/18 12:06:13;;;;;;;;;;;;;;;;;;5039981;28;20003;-80
2023/01/18 12:08:39;;;;;;;;;;;;;;;;;;5032763;28;19936;-79
2023/01/18 12:11:05;;;;;;;;;;;;;;;;;;5032703;28;19909;-80
2023/01/18 12:13:31;;;;;;;;;;;;;;;;;;5032712;28;19909;-79
2023/01/18 12:15:57;;;;;;;;;;;;;;;;;;5032443;28;19913;-80
2023/01/18 12:18:23;;;;;;;;;;;;;;;;;;5033638;28;19924;-79
2023/01/18 12:20:49;;;;;;;;;;;;;;;;;;5032995;28;20585;-80
2023/01/18 12:23:15;;;;;;;;;;;;;;;;;;5031855;28;20002;-79
2023/01/18 12:25:41;;;;;;;;;;;;;;;;;;5032485;28;19917;-79
2023/01/18 12:28:07;;;;;;;;;;;;;;;;;;5033002;28;20000;-79
2023/01/18 12:30:33;;;;;;;;;;;;;;;;;;5032820;28;20404;-80
2023/01/18 12:33:01;;;;;;;;;;;;;;;;;;5034423;28;20000;-79
2023/01/18 12:35:27;;;;;;;;;;;;;;;;;;5032762;28;19909;-79
2023/01/18 12:37:53;;;;;;;;;;;;;;;;;;5032384;28;19916;-79
2023/01/18 12:40:19;;;;;;;;;;;;;;;;;;5032049;28;20259;-79
2023/01/18 12:42:44;;;;;;;;;;;;;;;;;;5032265;28;19913;-79
2023/01/18 12:45:11;;;;;;;;;;;;;;;;;;5031794;28;19916;-79
2023/01/18 12:47:38;;;;;;;;;;;;;;;;;;5033059;28;19909;-80
2023/01/18 12:50:03;;;;;;;;;;;;;;;;;;5032022;28;19960;-80
2023/01/18 12:52:29;;;;;;;;;;;;;;;;;;5031904;28;19932;-79
2023/01/18 12:54:55;;;;;;;;;;;;;;;;;;5031621;28;20011;-79
2023/01/18 12:57:21;;;;;;;;;;;;;;;;;;5032845;28;19909;-80
2023/01/18 12:59:49;;;;;;;;;;;;;;;;;;5031340;28;20128;-79
2023/01/18 13:02:15;;;;;;;;;;;;;;;;;;5031772;28;19909;-79
2023/01/18 13:04:41;;;;;;;;;;;;;;;;;;5031389;28;19928;-80
2023/01/18 13:07:07;;;;;;;;;;;;;;;;;;5031494;28;20328;-79
2023/01/18 13:09:33;;;;;;;;;;;;;;;;;;5031566;28;19976;-79
2023/01/18 13:11:59;;;;;;;;;;;;;;;;;;5031717;28;20000;-79
2023/01/18 13:14:25;;;;;;;;;;;;;;;;;;5031651;28;19923;-79
2023/01/18 13:16:50;;;;;;;;;;;;;;;;;;5031533;28;19909;-79
2023/01/18 13:19:16;;;;;;;;;;;;;;;;;;5031371;28;19936;-79
2023/01/18 13:21:42;;;;;;;;;;;;;;;;;;5032251;28;19909;-79
2023/01/18 13:24:08;;;;;;;;;;;;;;;;;;5031563;28;19916;-80
2023/01/18 13:26:34;;;;;;;;;;;;;;;;;;5035867;28;19917;-81
2023/01/18 13:29:00;;;;;;;;;;;;;;;;;;5033788;28;20399;-80
2023/01/18 13:31:26;;;;;;;;;;;;;;;;;;5034594;28;19917;-80
2023/01/18 13:33:52;;;;;;;;;;;;;;;;;;5037181;28;19913;-80
2023/01/18 13:36:18;;;;;;;;;;;;;;;;;;5031102;28;19916;-79
2023/01/18 13:38:44;;;;;;;;;;;;;;;;;;5036825;28;19914;-79
2023/01/18 13:41:10;;;;;;;;;;;;;;;;;;5050091;28;19909;-79
2023/01/18 13:43:36;;;;;;;;;;;;;;;;;;5049444;28;19909;-80
2023/01/18 13:46:02;;;;;;;;;;;;;;;;;;5046411;28;20005;-80
2023/01/18 13:48:29;;;;;;;;;;;;;;;;;;5032695;28;19960;-79
2023/01/18 13:50:56;;;;;;;;;;;;;;;;;;5033511;28;19909;-80
2023/01/18 13:53:22;;;;;;;;;;;;;;;;;;5035078;28;19909;-80
2023/01/18 13:55:48;;;;;;;;;;;;;;;;;;5034587;28;19909;-79
2023/01/18 13:58:14;;;;;;;;;;;;;;;;;;5034765;28;20324;-79
2023/01/18 14:00:40;;;;;;;;;;;;;;;;;;5034775;28;19909;-79
2023/01/18 14:03:06;;;;;;;;;;;;;;;;;;5034403;28;19917;-79
2023/01/18 14:05:33;;;;;;;;;;;;;;;;;;5034385;28;19920;-79
2023/01/18 14:07:58;;;;;;;;;;;;;;;;;;5034574;28;19910;-79
2023/01/18 14:10:25;;;;;;;;;;;;;;;;;;5035031;28;19916;-80
2023/01/18 14:12:56;;;;;;;;;;;;;;;;;;5037214;28;19912;-79
2023/01/18 14:15:22;;;;;;;;;;;;;;;;;;5056332;28;19909;-79
2023/01/18 14:17:48;;;;;;;;;;;;;;;;;;5055236;28;19935;-79
2023/01/18 14:20:13;;;;;;;;;;;;;;;;;;5061965;28;20455;-80
2023/01/18 14:22:39;;;;;;;;;;;;;;;;;;5054179;28;19909;-77
2023/01/18 14:25:05;;;;;;;;;;;;;;;;;;5053929;28;19909;-77
2023/01/18 14:27:31;;;;;;;;;;;;;;;;;;5054119;28;20269;-80
2023/01/18 14:29:57;;;;;;;;;;;;;;;;;;5055442;28;19909;-78
2023/01/18 14:32:24;;;;;;;;;;;;;;;;;;5054109;28;19913;-77
2023/01/18 14:34:50;;;;;;;;;;;;;;;;;;5053988;28;19944;-77
2023/01/18 14:37:16;;;;;;;;;;;;;;;;;;5053814;28;19960;-77
2023/01/18 14:39:42;;;;;;;;;;;;;;;;;;5055296;28;19908;-78
2023/01/18 14:42:11;;;;;;;;;;;;;;;;;;5053857;28;19959;-76
2023/01/18 14:44:37;;;;;;;;;;;;;;;;;;5053692;28;19923;-76
2023/01/18 14:47:02;;;;;;;;;;;;;;;;;;5053738;28;19915;-76
2023/01/18 14:49:29;;;;;;;;;;;;;;;;;;5054572;28;19920;-76
2023/01/18 14:51:54;;;;;;;;;;;;;;;;;;5053564;28;20405;-76
2023/01/18 14:54:23;;;;;;;;;;;;;;;;;;5053486;28;19963;-76
2023/01/18 14:56:48;;;;;;;;;;;;;;;;;;5076064;22;19928;-76
2023/01/18 14:59:14;;;;;;;;;;;;;;;;;;5055507;28;20020;-76
2023/01/18 15:01:41;;;;;;;;;;;;;;;;;;5057000;28;19913;-75
2023/01/18 15:04:07;;;;;;;;;;;;;;;;;;5054586;28;19909;-76
2023/01/18 15:06:32;;;;;;;;;;;;;;;;;;5056710;28;20284;-75
2023/01/18 15:08:58;;;;;;;;;;;;;;;;;;5057067;28;19927;-77
2023/01/18 15:11:24;;;;;;;;;;;;;;;;;;5056140;28;19913;-77
2023/01/18 15:13:50;;;;;;;;;;;;;;;;;;5057225;28;19995;-77
2023/01/18 15:16:16;;;;;;;;;;;;;;;;;;5054780;28;19909;-77
2023/01/18 15:18:42;;;;;;;;;;;;;;;;;;5056054;28;19913;-78
2023/01/18 15:21:08;;;;;;;;;;;;;;;;;;5058029;28;19912;-77
2023/01/18 15:23:34;;;;;;;;;;;;;;;;;;5056141;28;19916;-77
2023/01/18 15:26:00;;;;;;;;;;;;;;;;;;5054671;28;19909;-78
2023/01/18 15:28:26;;;;;;;;;;;;;;;;;;5054470;28;19908;-77
2023/01/18 15:30:52;;;;;;;;;;;;;;;;;;5054517;28;19909;-77
2023/01/18 15:33:19;;;;;;;;;;;;;;;;;;5056636;28;19932;-77
2023/01/18 15:35:45;;;;;;;;;;;;;;;;;;5057330;28;19928;-76
2023/01/18 15:38:11;;;;;;;;;;;;;;;;;;5057588;28;19913;-78
2023/01/18 15:40:37;;;;;;;;;;;;;;;;;;5057143;28;20289;-78
2023/01/18 15:43:03;;;;;;;;;;;;;;;;;;5058524;28;19955;-77
2023/01/18 15:45:29;;;;;;;;;;;;;;;;;;5056780;28;19905;-78
2023/01/18 15:47:55;;;;;;;;;;;;;;;;;;5057295;28;19948;-78
2023/01/18 15:50:21;;;;;;;;;;;;;;;;;;5056726;28;19905;-78
2023/01/18 15:52:47;;;;;;;;;;;;;;;;;;5057630;28;19909;-78
2023/01/18 15:55:13;;;;;;;;;;;;;;;;;;5057315;28;19912;-76
2023/01/18 15:57:38;;;;;;;;;;;;;;;;;;5054565;28;19917;-77
2023/01/18 16:00:04;;;;;;;;;;;;;;;;;;5050359;28;19909;-77
2023/01/18 16:02:30;;;;;;;;;;;;;;;;;;5055135;28;19909;-77
2023/01/18 16:04:56;;;;;;;;;;;;;;;;;;5054804;28;19924;-76
2023/01/18 16:07:22;;;;;;;;;;;;;;;;;;5055552;28;19909;-76
2023/01/18 16:09:48;;;;;;;;;;;;;;;;;;5060752;28;19958;-78
2023/01/18 16:12:14;;;;;;;;;;;;;;;;;;5058012;28;19909;-77
2023/01/18 16:14:45;;;;;;;;;;;;;;;;;;5054911;28;19909;-77
2023/01/18 16:17:10;;;;;;;;;;;;;;;;;;5053705;28;19908;-77
2023/01/18 16:19:36;;;;;;;;;;;;;;;;;;5053488;28;20290;-76
2023/01/18 16:22:02;;;;;;;;;;;;;;;;;;5054561;28;19908;-78
2023/01/18 16:24:28;;;;;;;;;;;;;;;;;;5054770;28;19909;-77
2023/01/18 16:26:54;;;;;;;;;;;;;;;;;;5052965;28;19909;-76
2023/01/18 16:29:20;;;;;;;;;;;;;;;;;;5054215;28;19916;-77
2023/01/18 16:31:47;;;;;;;;;;;;;;;;;;5056259;28;20345;-78
2023/01/18 16:34:13;;;;;;;;;;;;;;;;;;5055232;28;19916;-77
2023/01/18 16:36:38;;;;;;;;;;;;;;;;;;5054927;28;19909;-79
2023/01/18 16:39:04;;;;;;;;;;;;;;;;;;5056880;28;19913;-78
2023/01/18 16:41:30;;;;;;;;;;;;;;;;;;5055658;28;20377;-77
2023/01/18 16:43:56;;;;;;;;;;;;;;;;;;5056208;28;20002;-77
2023/01/18 16:46:22;;;;;;;;;;;;;;;;;;5055473;28;20011;-78
2023/01/18 16:48:48;;;;;;;;;;;;;;;;;;5055733;28;19915;-76
2023/01/18 16:51:16;;;;;;;;;;;;;;;;;;5055642;28;19909;-77
2023/01/18 16:53:42;;;;;;;;;;;;;;;;;;5054969;28;19917;-77
2023/01/18 16:56:08;;;;;;;;;;;;;;;;;;5052450;28;19917;-76
2023/01/18 16:58:34;;;;;;;;;;;;;;;;;;5053357;28;19913;-78
2023/01/18 17:01:00;;;;;;;;;;;;;;;;;;5052979;28;20381;-76
2023/01/18 17:03:26;;;;;;;;;;;;;;;;;;5051710;28;19909;-75
2023/01/18 17:05:52;;;;;;;;;;;;;;;;;;5052057;28;20349;-77
2023/01/18 17:08:18;;;;;;;;;;;;;;;;;;5053088;28;19909;-76
2023/01/18 17:10:44;;;;;;;;;;;;;;;;;;5053936;28;19909;-75